Time;durP1;ratioP1;P1;durP2;ratioP2;P2;SDS_P1;SDS_P2;PMS_P1;PMS_P2;Temp;Humidity;BMP_temperature;BMP_pressure;BME280_temperature;BME280_humidity;BME280_pressure;Samples;Min_cycle;Max_cycle;Signal;HPM_P1;HPM_P2
2023/07/30 00:00:44;;;;;;;3.07;2.43;;;16.40;99.90;;;;;;5088100;28;20186;-69
2023/07/30 00:03:09;;;;;;;4.70;2.73;;;16.30;99.90;;;;;;5092029;28;20172;-70
2023/07/30 00:05:35;;;;;;;2.57;2.00;;;16.20;99.90;;;;;;5090729;28;20214;-70
2023/07/30 00:08:00;;;;;;;2.63;2.40;;;16.20;99.90;;;;;;5090796;28;20189;-70
2023/07/30 00:10:26;;;;;;;3.13;1.97;;;16.20;99.90;;;;;;5090234;28;20201;-70
2023/07/30 00:12:51;;;;;;;2.10;1.90;;;16.20;99.90;;;;;;5087158;28;20186;-71
2023/07/30 00:15:17;;;;;;;3.20;2.43;;;16.20;99.90;;;;;;5092367;28;20184;-70
2023/07/30 00:17:42;;;;;;;6.40;2.63;;;16.20;99.90;;;;;;5096029;28;20200;-70
2023/07/30 00:20:08;;;;;;;4.97;2.53;;;16.20;99.90;;;;;;5093562;28;20200;-69
2023/07/30 00:22:34;;;;;;;3.50;2.03;;;16.20;99.90;;;;;;5094875;28;20177;-69
2023/07/30 00:25:00;;;;;;;3.60;2.13;;;16.20;99.90;;;;;;5095579;28;20422;-70
2023/07/30 00:27:25;;;;;;;8.17;2.90;;;16.20;99.90;;;;;;5094848;28;20177;-70
2023/07/30 00:29:51;;;;;;;2.67;2.37;;;16.20;99.90;;;;;;5094291;28;20204;-69
2023/07/30 00:32:17;;;;;;;6.50;2.33;;;16.10;99.90;;;;;;5092938;28;20178;-69
2023/07/30 00:34:43;;;;;;;6.30;2.47;;;16.20;99.90;;;;;;5094477;28;20176;-69
2023/07/30 00:37:08;;;;;;;2.93;2.27;;;16.20;99.90;;;;;;5095448;28;20261;-70
2023/07/30 00:39:34;;;;;;;3.27;2.80;;;16.20;99.90;;;;;;5092726;28;20880;-69
2023/07/30 00:41:59;;;;;;;4.33;2.50;;;16.30;99.90;;;;;;5094359;28;20566;-70
2023/07/30 00:44:25;;;;;;;3.30;2.67;;;16.30;99.90;;;;;;5093022;28;20196;-70
2023/07/30 00:46:50;;;;;;;5.20;2.60;;;16.30;99.90;;;;;;5094064;28;20177;-69
2023/07/30 00:49:16;;;;;;;10.43;2.87;;;16.30;99.90;;;;;;5095448;28;20670;-69
2023/07/30 00:51:43;;;;;;;4.67;2.83;;;16.30;99.90;;;;;;5095387;28;20162;-69
2023/07/30 00:54:09;;;;;;;3.23;2.63;;;16.30;99.90;;;;;;5095508;28;20212;-69
2023/07/30 00:56:34;;;;;;;2.67;2.40;;;16.30;99.90;;;;;;5092645;28;20451;-70
2023/07/30 00:59:00;;;;;;;2.20;2.00;;;16.30;99.90;;;;;;5095350;28;20242;-70
2023/07/30 01:01:26;;;;;;;2.63;2.43;;;16.20;99.90;;;;;;5095476;28;20170;-70
2023/07/30 01:03:52;;;;;;;3.10;2.17;;;16.20;99.90;;;;;;5095200;28;20430;-70
2023/07/30 01:06:18;;;;;;;2.53;2.33;;;16.20;99.90;;;;;;5093738;28;20211;-70
2023/07/30 01:08:43;;;;;;;4.30;2.60;;;16.20;99.90;;;;;;5087832;28;20560;-70
2023/07/30 01:11:10;;;;;;;2.53;1.93;;;16.30;99.90;;;;;;5082835;28;20415;-70
2023/07/30 01:13:35;;;;;;;2.70;2.33;;;16.30;99.90;;;;;;5089048;28;20166;-70
2023/07/30 01:16:03;;;;;;;4.70;2.53;;;16.40;99.90;;;;;;5093377;28;20498;-69
2023/07/30 01:18:28;;;;;;;7.03;2.90;;;16.50;99.90;;;;;;5092683;28;20480;-70
2023/07/30 01:20:58;;;;;;;3.07;2.33;;;16.50;99.90;;;;;;5093682;28;20878;-69
2023/07/30 01:23:25;;;;;;;7.33;2.63;;;16.60;99.90;;;;;;5093701;28;20404;-69
2023/07/30 01:26:01;;;;;;;3.10;2.53;;;16.60;99.90;;;;;;5083508;28;20898;-68
2023/07/30 01:28:28;;;;;;;3.60;2.23;;;16.60;99.90;;;;;;5093610;28;20895;-69
2023/07/30 01:30:56;;;;;;;9.13;3.30;;;16.70;99.90;;;;;;5092484;28;20565;-69
2023/07/30 01:33:22;;;;;;;4.57;2.87;;;16.80;99.90;;;;;;5093357;28;20395;-69
2023/07/30 01:35:49;;;;;;;6.73;2.63;;;16.80;99.90;;;;;;5090450;28;20415;-69
2023/07/30 01:38:15;;;;;;;2.60;1.97;;;16.80;99.90;;;;;;5092643;28;20459;-69
2023/07/30 01:40:40;;;;;;;3.00;2.30;;;16.90;99.90;;;;;;5092673;28;20426;-69
2023/07/30 01:43:07;;;;;;;3.53;2.40;;;17.00;99.90;;;;;;5093170;28;20490;-68
2023/07/30 01:45:34;;;;;;;3.00;2.40;;;17.00;99.90;;;;;;5082555;28;20170;-69
2023/07/30 01:47:59;;;;;;;2.90;2.67;;;17.00;99.90;;;;;;5084988;28;20415;-69
2023/07/30 01:50:25;;;;;;;6.00;2.73;;;17.10;99.90;;;;;;5092196;28;20434;-69
2023/07/30 01:52:51;;;;;;;6.10;3.00;;;17.10;99.90;;;;;;5093437;28;20184;-68
2023/07/30 01:55:17;;;;;;;4.00;2.20;;;17.10;99.90;;;;;;5084096;28;20169;-69
2023/07/30 01:57:42;;;;;;;6.10;2.80;;;17.20;99.90;;;;;;5092951;28;20186;-68
2023/07/30 02:00:08;;;;;;;7.03;2.17;;;17.20;99.90;;;;;;5091811;28;20499;-68
2023/07/30 02:02:35;;;;;;;3.27;2.97;;;17.20;99.90;;;;;;5093431;28;20181;-69
2023/07/30 02:05:00;;;;;;;6.10;2.60;;;17.20;99.90;;;;;;5082745;28;20427;-70
2023/07/30 02:07:26;;;;;;;3.23;2.93;;;17.20;99.90;;;;;;5055815;28;1060642;-69
2023/07/30 02:09:51;;;;;;;12.60;3.40;;;17.20;99.90;;;;;;5093913;28;20240;-68
2023/07/30 02:12:17;;;;;;;2.63;2.17;;;17.20;99.90;;;;;;5093876;28;20572;-69
2023/07/30 02:14:42;;;;;;;2.23;2.03;;;17.20;99.90;;;;;;5084648;28;20166;-69
2023/07/30 02:17:08;;;;;;;2.43;2.10;;;17.20;99.90;;;;;;5092128;28;20205;-69
2023/07/30 02:19:33;;;;;;;7.20;2.80;;;17.20;99.90;;;;;;5092481;28;20189;-69
2023/07/30 02:21:59;;;;;;;2.40;2.20;;;17.20;99.90;;;;;;5092409;28;20227;-69
2023/07/30 02:24:24;;;;;;;6.50;2.43;;;17.20;99.90;;;;;;5086416;28;20162;-70
2023/07/30 02:26:50;;;;;;;4.77;2.50;;;17.20;99.90;;;;;;5092656;28;20657;-69
2023/07/30 02:29:15;;;;;;;2.97;2.50;;;17.10;99.90;;;;;;5093530;28;20189;-70
2023/07/30 02:31:41;;;;;;;2.93;2.67;;;17.10;99.90;;;;;;5092056;28;20162;-70
2023/07/30 02:34:07;;;;;;;4.53;2.03;;;17.20;99.90;;;;;;5091615;28;20646;-69
2023/07/30 02:36:33;;;;;;;4.83;2.30;;;17.20;99.90;;;;;;5093404;28;20162;-69
2023/07/30 02:38:58;;;;;;;8.70;2.43;;;17.20;99.90;;;;;;5092422;28;20797;-69
2023/07/30 02:41:24;;;;;;;3.67;2.40;;;17.20;99.90;;;;;;5093238;28;20172;-70
2023/07/30 02:43:49;;;;;;;3.40;2.17;;;17.20;99.90;;;;;;5092179;28;20157;-69
2023/07/30 02:46:15;;;;;;;3.50;2.47;;;17.10;99.90;;;;;;5092912;28;20170;-69
2023/07/30 02:48:40;;;;;;;7.10;2.20;;;17.00;99.90;;;;;;5092035;28;20250;-69
2023/07/30 02:51:06;;;;;;;4.40;2.50;;;17.00;99.90;;;;;;5093108;28;20780;-69
2023/07/30 02:53:31;;;;;;;3.50;2.50;;;17.00;99.90;;;;;;5088032;28;20172;-70
2023/07/30 02:55:57;;;;;;;5.63;3.03;;;16.90;99.90;;;;;;5093128;28;20174;-70
2023/07/30 02:58:22;;;;;;;7.60;2.80;;;16.90;99.90;;;;;;5091968;28;20274;-70
2023/07/30 03:00:48;;;;;;;5.50;1.70;;;16.90;99.90;;;;;;5093176;28;20197;-70
2023/07/30 03:03:13;;;;;;;4.33;2.33;;;17.00;99.90;;;;;;5091836;28;20170;-70
2023/07/30 03:05:42;;;;;;;3.93;2.73;;;17.10;99.90;;;;;;5091346;28;20172;-69
2023/07/30 03:08:08;;;;;;;2.40;2.13;;;17.10;99.90;;;;;;5092898;28;20181;-70
2023/07/30 03:10:33;;;;;;;4.50;2.57;;;17.10;99.90;;;;;;5091595;28;20433;-70
2023/07/30 03:12:59;;;;;;;4.20;1.77;;;17.10;99.90;;;;;;5090543;28;20174;-70
2023/07/30 03:15:24;;;;;;;3.00;2.50;;;17.10;99.90;;;;;;5091268;28;20172;-70
2023/07/30 03:17:50;;;;;;;7.13;3.07;;;17.10;99.90;;;;;;5092868;28;20284;-69
2023/07/30 03:20:15;;;;;;;5.47;2.60;;;17.20;99.90;;;;;;5091561;28;20272;-69
2023/07/30 03:22:41;;;;;;;5.30;2.10;;;17.20;99.90;;;;;;5091366;28;20189;-70
2023/07/30 03:25:07;;;;;;;6.07;2.00;;;17.30;99.90;;;;;;5092407;28;20203;-70
2023/07/30 03:27:32;;;;;;;7.40;2.23;;;17.30;99.90;;;;;;5092667;28;20169;-70
2023/07/30 03:29:58;;;;;;;3.70;2.63;;;17.30;99.90;;;;;;5092528;28;20797;-70
2023/07/30 03:32:23;;;;;;;3.47;2.23;;;17.40;99.90;;;;;;5090071;28;20230;-69
2023/07/30 03:34:49;;;;;;;3.33;2.03;;;17.40;99.90;;;;;;5092320;28;20170;-69
2023/07/30 03:37:14;;;;;;;4.10;2.20;;;17.40;99.90;;;;;;5092210;28;20204;-69
2023/07/30 03:39:40;;;;;;;3.10;2.17;;;17.40;99.90;;;;;;5091031;28;20182;-70
2023/07/30 03:42:06;;;;;;;3.13;1.90;;;17.40;99.90;;;;;;5090195;28;21288;-69
2023/07/30 03:44:31;;;;;;;11.20;2.70;;;17.30;99.90;;;;;;5083775;28;20636;-69
2023/07/30 03:46:56;;;;;;;3.43;1.93;;;17.30;99.90;;;;;;5082843;28;20182;-69
2023/07/30 03:49:22;;;;;;;3.37;1.90;;;17.30;99.90;;;;;;5084020;28;20197;-69
2023/07/30 03:51:47;;;;;;;2.40;2.20;;;17.20;99.90;;;;;;5090579;28;20647;-69
2023/07/30 03:54:13;;;;;;;2.60;2.03;;;17.20;99.90;;;;;;5082569;28;20171;-69
2023/07/30 03:56:39;;;;;;;5.73;2.23;;;17.10;99.90;;;;;;5089095;28;20787;-68
2023/07/30 03:59:04;;;;;;;5.87;2.93;;;17.00;99.90;;;;;;5092080;28;20201;-70
2023/07/30 04:01:30;;;;;;;3.23;1.93;;;16.90;99.90;;;;;;5090985;28;20227;-69
2023/07/30 04:03:56;;;;;;;3.03;1.57;;;16.90;99.90;;;;;;5090950;28;20694;-69
2023/07/30 04:06:21;;;;;;;2.83;2.10;;;16.90;99.90;;;;;;5090590;28;20169;-70
2023/07/30 04:08:47;;;;;;;4.90;1.97;;;16.90;99.90;;;;;;5092032;28;20250;-69
2023/07/30 04:11:12;;;;;;;4.27;1.87;;;16.90;99.90;;;;;;5091979;28;20166;-70
2023/07/30 04:13:38;;;;;;;1.93;1.40;;;17.00;99.90;;;;;;5089143;28;20213;-70
2023/07/30 04:16:03;;;;;;;7.80;2.30;;;17.00;99.90;;;;;;5091720;28;20178;-69
2023/07/30 04:18:29;;;;;;;4.17;1.93;;;17.10;99.90;;;;;;5091095;28;20570;-69
2023/07/30 04:20:58;;;;;;;7.90;2.07;;;17.10;99.90;;;;;;5091980;28;20278;-70
2023/07/30 04:23:23;;;;;;;2.67;2.10;;;17.10;99.90;;;;;;5090981;28;20229;-70
2023/07/30 04:25:50;;;;;;;3.63;2.60;;;17.10;99.90;;;;;;5091411;28;20412;-70
2023/07/30 04:28:16;;;;;;;3.63;2.07;;;17.20;99.90;;;;;;5091888;28;20536;-70
2023/07/30 04:30:41;;;;;;;4.87;2.07;;;17.20;99.90;;;;;;5091773;28;20427;-70
2023/07/30 04:33:07;;;;;;;5.03;2.40;;;17.20;99.90;;;;;;5091752;28;20176;-70
2023/07/30 04:35:32;;;;;;;2.87;1.90;;;17.20;99.90;;;;;;5091629;28;20170;-69
2023/07/30 04:37:58;;;;;;;3.10;1.90;;;17.20;99.90;;;;;;5090430;28;20225;-69
2023/07/30 04:40:23;;;;;;;2.27;2.07;;;17.30;99.90;;;;;;5091706;28;20209;-70
2023/07/30 04:42:49;;;;;;;4.17;1.90;;;17.30;99.90;;;;;;5091759;28;20600;-70
2023/07/30 04:45:14;;;;;;;2.03;1.70;;;17.20;99.90;;;;;;5091653;28;20546;-70
2023/07/30 04:47:40;;;;;;;5.63;2.27;;;17.20;99.90;;;;;;5091620;28;20174;-70
2023/07/30 04:50:05;;;;;;;4.70;2.00;;;17.20;99.90;;;;;;5091692;28;20189;-70
2023/07/30 04:52:31;;;;;;;3.63;2.20;;;17.20;99.90;;;;;;5091601;28;20173;-70
2023/07/30 04:54:57;;;;;;;3.90;1.70;;;17.20;99.90;;;;;;5091456;28;20209;-70
2023/07/30 04:57:22;;;;;;;3.80;2.10;;;17.20;99.90;;;;;;5090117;28;20869;-70
2023/07/30 04:59:48;;;;;;;2.60;1.77;;;17.20;99.90;;;;;;5091525;28;20193;-70
2023/07/30 05:02:13;;;;;;;1.53;1.30;;;17.30;99.90;;;;;;5092868;28;20166;-69
2023/07/30 05:04:39;;;;;;;9.07;2.40;;;17.30;99.90;;;;;;5095318;28;20162;-70
2023/07/30 05:07:05;;;;;;;6.60;2.13;;;17.30;99.90;;;;;;5093591;28;20181;-70
2023/07/30 05:09:30;;;;;;;5.63;2.40;;;17.30;99.90;;;;;;5095018;28;20235;-70
2023/07/30 05:11:56;;;;;;;2.80;1.40;;;17.40;99.90;;;;;;5095297;28;20215;-71
2023/07/30 05:14:21;;;;;;;2.70;1.33;;;17.30;99.90;;;;;;5095128;28;20576;-70
2023/07/30 05:16:47;;;;;;;4.60;1.60;;;17.30;99.90;;;;;;5093317;28;20851;-70
2023/07/30 05:19:12;;;;;;;2.90;1.60;;;17.40;99.90;;;;;;5094911;28;20189;-71
2023/07/30 05:21:38;;;;;;;3.97;1.70;;;17.40;99.90;;;;;;5094813;28;20192;-70
2023/07/30 05:24:04;;;;;;;2.13;1.67;;;17.40;99.90;;;;;;5093536;28;20642;-70
2023/07/30 05:26:29;;;;;;;6.00;1.70;;;17.50;99.90;;;;;;5094201;28;20164;-70
2023/07/30 05:28:55;;;;;;;8.40;1.30;;;17.50;99.90;;;;;;5094326;28;20400;-70
2023/07/30 05:31:21;;;;;;;1.67;1.10;;;17.50;99.90;;;;;;5094684;28;20283;-70
2023/07/30 05:33:46;;;;;;;7.93;1.57;;;17.60;99.90;;;;;;5094619;28;20180;-70
2023/07/30 05:36:12;;;;;;;4.53;1.47;;;17.60;99.90;;;;;;5094488;28;20407;-70
2023/07/30 05:38:37;;;;;;;1.53;1.43;;;17.60;99.90;;;;;;5094141;28;20201;-71
2023/07/30 05:41:03;;;;;;;1.50;1.30;;;17.60;99.90;;;;;;5094565;28;20177;-70
2023/07/30 05:43:28;;;;;;;3.23;1.20;;;17.60;99.90;;;;;;5094529;28;20186;-69
2023/07/30 05:45:54;;;;;;;5.43;2.17;;;17.50;99.90;;;;;;5092880;28;20201;-69
2023/07/30 05:48:19;;;;;;;6.70;2.13;;;17.60;99.90;;;;;;5093279;28;20226;-70
2023/07/30 05:50:45;;;;;;;4.20;1.20;;;17.70;99.90;;;;;;5093119;28;20204;-70
2023/07/30 05:53:10;;;;;;;3.07;1.60;;;17.70;99.90;;;;;;5092963;28;20566;-70
2023/07/30 05:55:36;;;;;;;4.40;1.60;;;17.80;99.90;;;;;;5094046;28;20256;-70
2023/07/30 05:58:01;;;;;;;7.73;2.10;;;17.80;99.90;;;;;;5094407;28;20193;-70
2023/07/30 06:00:27;;;;;;;2.03;1.10;;;17.90;99.90;;;;;;5092812;28;20625;-69
2023/07/30 06:02:52;;;;;;;3.10;1.30;;;18.00;99.90;;;;;;5094231;28;20249;-69
2023/07/30 06:05:18;;;;;;;2.13;1.30;;;18.10;99.90;;;;;;5093803;28;20201;-69
2023/07/30 06:07:44;;;;;;;2.20;1.20;;;18.30;99.90;;;;;;5094094;28;20264;-70
2023/07/30 06:10:09;;;;;;;2.07;1.60;;;18.50;99.90;;;;;;5093890;28;20204;-69
2023/07/30 06:12:35;;;;;;;4.40;1.47;;;18.50;99.90;;;;;;5092785;28;20263;-70
2023/07/30 06:15:00;;;;;;;6.57;1.60;;;18.60;99.90;;;;;;5092517;28;20166;-70
2023/07/30 06:17:26;;;;;;;2.53;2.10;;;18.60;99.90;;;;;;5093882;28;20193;-69
2023/07/30 06:19:51;;;;;;;4.23;1.80;;;18.60;99.90;;;;;;5093784;28;20177;-70
2023/07/30 06:22:17;;;;;;;3.80;2.00;;;18.60;99.90;;;;;;5093579;28;20838;-70
2023/07/30 06:24:42;;;;;;;3.17;1.40;;;18.70;99.90;;;;;;5093755;28;20197;-70
2023/07/30 06:27:09;;;;;;;1.30;1.20;;;18.60;99.90;;;;;;5093396;28;20177;-70
2023/07/30 06:29:35;;;;;;;8.37;1.33;;;18.60;99.90;;;;;;5093573;28;20766;-70
2023/07/30 06:32:01;;;;;;;3.27;1.27;;;18.70;99.90;;;;;;5093704;28;20407;-70
2023/07/30 06:34:26;;;;;;;4.43;1.67;;;18.90;99.90;;;;;;5093549;28;20476;-70
2023/07/30 06:36:52;;;;;;;2.70;1.40;;;18.90;99.90;;;;;;5090072;28;20178;-70
2023/07/30 06:39:17;;;;;;;1.70;1.30;;;18.80;99.90;;;;;;5083991;28;20209;-70
2023/07/30 06:41:43;;;;;;;1.80;1.37;;;18.90;99.90;;;;;;5091143;28;20573;-69
2023/07/30 06:44:08;;;;;;;5.30;3.70;;;18.80;99.90;;;;;;5092238;28;20165;-70
2023/07/30 06:46:34;;;;;;;3.00;1.83;;;18.90;99.90;;;;;;5093095;28;20624;-70
2023/07/30 06:48:59;;;;;;;2.10;1.60;;;19.00;99.90;;;;;;5092214;28;20178;-70
2023/07/30 06:51:25;;;;;;;3.57;1.37;;;19.00;99.90;;;;;;5093157;28;20189;-70
2023/07/30 06:53:51;;;;;;;5.40;1.53;;;19.00;99.90;;;;;;5093133;28;20719;-70
2023/07/30 06:56:16;;;;;;;4.17;1.50;;;19.00;99.90;;;;;;5093110;28;20215;-69
2023/07/30 06:58:42;;;;;;;5.33;2.00;;;19.00;99.90;;;;;;5091835;28;20251;-69
2023/07/30 07:01:07;;;;;;;4.60;1.70;;;19.00;99.90;;;;;;5092946;28;20193;-70
2023/07/30 07:03:33;;;;;;;1.67;1.57;;;19.10;99.90;;;;;;5092997;28;20169;-70
2023/07/30 07:05:58;;;;;;;4.10;1.30;;;19.10;99.90;;;;;;5091433;28;20172;-70
2023/07/30 07:08:24;;;;;;;3.60;1.50;;;19.10;99.90;;;;;;5089813;28;20577;-70
2023/07/30 07:10:49;;;;;;;2.20;1.67;;;19.20;99.90;;;;;;5092694;28;20562;-69
2023/07/30 07:13:16;;;;;;;2.97;1.20;;;19.20;99.90;;;;;;5092778;28;20174;-70
2023/07/30 07:15:42;;;;;;;3.77;1.70;;;19.20;99.90;;;;;;5092417;28;20219;-70
2023/07/30 07:18:08;;;;;;;3.67;1.63;;;19.40;99.90;;;;;;5091373;28;20534;-70
2023/07/30 07:20:34;;;;;;;4.50;1.70;;;19.50;99.90;;;;;;5083748;28;20526;-71
2023/07/30 07:22:59;;;;;;;3.43;1.60;;;19.60;99.90;;;;;;5091310;28;20454;-70
2023/07/30 07:25:25;;;;;;;6.87;1.63;;;19.70;99.90;;;;;;5091860;28;20169;-69
2023/07/30 07:27:50;;;;;;;11.27;2.10;;;19.90;99.90;;;;;;5091415;28;20181;-70
2023/07/30 07:30:16;;;;;;;6.80;1.83;;;20.10;99.90;;;;;;5091270;28;20661;-70
2023/07/30 07:32:41;;;;;;;5.60;1.90;;;20.30;99.90;;;;;;5091211;28;20177;-70
2023/07/30 07:35:07;;;;;;;4.67;1.40;;;20.40;99.90;;;;;;5090918;28;20201;-70
2023/07/30 07:37:33;;;;;;;1.87;1.60;;;20.70;99.90;;;;;;5086014;28;20197;-70
2023/07/30 07:39:59;;;;;;;2.10;1.50;;;20.80;99.90;;;;;;5091188;28;20530;-70
2023/07/30 07:42:24;;;;;;;4.90;2.33;;;21.00;99.90;;;;;;5092301;28;20161;-70
2023/07/30 07:44:50;;;;;;;3.47;1.73;;;21.00;99.90;;;;;;5091063;28;20652;-69
2023/07/30 07:47:16;;;;;;;5.43;2.00;;;20.90;99.90;;;;;;5090974;28;20237;-69
2023/07/30 07:49:41;;;;;;;4.73;1.97;;;20.90;99.90;;;;;;5092065;28;20186;-69
2023/07/30 07:52:07;;;;;;;8.60;1.70;;;20.90;99.90;;;;;;5092285;28;20406;-70
2023/07/30 07:54:32;;;;;;;6.67;1.47;;;20.80;99.90;;;;;;5092213;28;20539;-70
2023/07/30 07:56:58;;;;;;;3.83;1.50;;;20.70;99.90;;;;;;5086512;28;20238;-69
2023/07/30 07:59:24;;;;;;;2.73;1.60;;;20.60;99.90;;;;;;5090482;28;20185;-69
2023/07/30 08:01:49;;;;;;;8.10;2.60;;;20.60;99.90;;;;;;5092252;28;20164;-69
2023/07/30 08:04:15;;;;;;;2.13;1.70;;;20.60;99.90;;;;;;5092206;28;20645;-69
2023/07/30 08:06:40;;;;;;;5.57;2.17;;;20.70;99.90;;;;;;5090587;28;20253;-69
2023/07/30 08:09:06;;;;;;;2.20;1.80;;;21.00;99.90;;;;;;5091289;28;20185;-68
2023/07/30 08:11:32;;;;;;;7.73;2.30;;;21.40;99.90;;;;;;5091680;28;20172;-67
2023/07/30 08:13:57;;;;;;;2.27;1.50;;;21.70;99.90;;;;;;5090306;28;20181;-68
2023/07/30 08:16:23;;;;;;;4.10;2.00;;;21.80;99.90;;;;;;5089827;28;20176;-68
2023/07/30 08:18:49;;;;;;;4.70;2.00;;;21.70;99.90;;;;;;5085817;28;20221;-68
2023/07/30 08:21:17;;;;;;;5.53;2.80;;;21.60;99.90;;;;;;5090613;28;20177;-68
2023/07/30 08:23:43;;;;;;;6.30;3.03;;;21.50;99.90;;;;;;5090674;28;20204;-67
2023/07/30 08:26:08;;;;;;;3.13;2.00;;;21.30;99.90;;;;;;5090325;28;20802;-68
2023/07/30 08:28:34;;;;;;;3.47;2.00;;;21.00;99.90;;;;;;5090714;28;20197;-68
2023/07/30 08:31:01;;;;;;;9.43;3.47;;;20.80;99.90;;;;;;5091962;28;20197;-68
2023/07/30 08:33:27;;;;;;;5.53;2.40;;;20.50;99.90;;;;;;5091836;28;20231;-68
2023/07/30 08:35:56;;;;;;;12.40;2.60;;;20.50;99.90;;;;;;5092159;28;20888;-68
2023/07/30 08:38:21;;;;;;;9.57;4.20;;;20.50;99.90;;;;;;5093748;28;20196;-68
2023/07/30 08:40:47;;;;;;;2.67;1.80;;;21.20;99.90;;;;;;5094434;28;20440;-68
2023/07/30 08:43:13;;;;;;;5.60;1.97;;;22.40;99.90;;;;;;5095772;28;20214;-68
2023/07/30 08:45:38;;;;;;;4.93;2.00;;;23.60;99.90;;;;;;5095641;28;20176;-68
2023/07/30 08:48:04;;;;;;;4.23;2.20;;;24.70;99.90;;;;;;5094421;28;20181;-68
2023/07/30 08:50:30;;;;;;;4.00;2.17;;;25.70;99.90;;;;;;5094338;28;20193;-68
2023/07/30 08:52:57;;;;;;;4.70;2.00;;;25.90;99.90;;;;;;5094569;28;20196;-68
2023/07/30 08:55:24;;;;;;;6.87;1.83;;;25.90;99.90;;;;;;5095213;28;20892;-68
2023/07/30 08:57:51;;;;;;;1.60;1.30;;;25.50;99.90;;;;;;5093578;28;20955;-68
2023/07/30 09:00:19;;;;;;;10.07;1.90;;;24.90;99.90;;;;;;5094074;28;20435;-68
2023/07/30 09:02:49;;;;;;;2.40;1.40;;;24.60;99.90;;;;;;5095411;28;20414;-68
2023/07/30 09:05:15;;;;;;;7.50;1.80;;;24.60;99.90;;;;;;5095128;28;20413;-69
2023/07/30 09:07:41;;;;;;;6.47;1.90;;;24.40;99.90;;;;;;5091526;28;20455;-68
2023/07/30 09:10:07;;;;;;;11.80;2.77;;;24.20;99.90;;;;;;5093959;28;20485;-68
2023/07/30 09:12:34;;;;;;;8.13;1.97;;;24.10;99.90;;;;;;5093847;28;20830;-68
2023/07/30 09:15:03;;;;;;;8.83;1.73;;;24.00;99.90;;;;;;5095111;28;20166;-68
2023/07/30 09:17:29;;;;;;;3.13;1.60;;;23.80;99.90;;;;;;5092401;28;20820;-68
2023/07/30 09:19:54;;;;;;;3.20;1.97;;;23.70;99.90;;;;;;5094835;28;20423;-68
2023/07/30 09:22:27;;;;;;;10.17;2.40;;;23.80;99.90;;;;;;5094983;28;20158;-68
2023/07/30 09:24:53;;;;;;;3.53;1.87;;;23.90;99.90;;;;;;5094858;28;20173;-68
2023/07/30 09:27:23;;;;;;;4.73;1.70;;;24.00;99.90;;;;;;5093729;28;20426;-68
2023/07/30 09:29:59;;;;;;;7.57;2.23;;;24.30;99.90;;;;;;5092925;28;20462;-68
2023/07/30 09:32:30;;;;;;;6.67;4.70;;;25.30;99.90;;;;;;5094421;28;20476;-68
2023/07/30 09:35:05;;;;;;;10.27;2.20;;;27.80;99.90;;;;;;5094514;28;20408;-69
2023/07/30 09:37:30;;;;;;;2.43;1.50;;;30.40;85.90;;;;;;5093548;28;20539;-69
2023/07/30 09:39:57;;;;;;;4.33;2.20;;;31.70;72.70;;;;;;5094433;28;20519;-70
2023/07/30 09:42:27;;;;;;;3.77;1.50;;;32.40;62.10;;;;;;5093309;28;20166;-69
2023/07/30 09:44:53;;;;;;;3.27;1.70;;;31.80;58.00;;;;;;5093392;28;20758;-68
2023/07/30 09:47:18;;;;;;;4.20;1.60;;;31.60;57.70;;;;;;5093186;28;20423;-68
2023/07/30 09:49:44;;;;;;;3.90;2.00;;;32.30;58.30;;;;;;5094481;28;20196;-69
2023/07/30 09:52:11;;;;;;;3.57;1.80;;;32.90;54.70;;;;;;5094574;28;20313;-69
2023/07/30 09:54:39;;;;;;;4.13;2.60;;;33.50;53.70;;;;;;5093240;28;20170;-70
2023/07/30 09:57:05;;;;;;;5.33;2.50;;;33.40;51.30;;;;;;5088632;28;20948;-69
2023/07/30 09:59:30;;;;;;;5.43;2.07;;;32.90;52.10;;;;;;5091460;28;20435;-69
2023/07/30 10:01:58;;;;;;;1.87;1.50;;;33.10;50.70;;;;;;5093572;28;20181;-69
2023/07/30 10:04:24;;;;;;;2.93;1.87;;;32.20;49.80;;;;;;5093957;28;20674;-69
2023/07/30 10:07:03;;;;;;;5.17;2.30;;;31.80;50.50;;;;;;5092379;28;20415;-69
2023/07/30 10:09:33;;;;;;;4.23;2.10;;;32.70;52.80;;;;;;5093125;28;20446;-70
2023/07/30 10:12:01;;;;;;;3.63;1.90;;;34.60;50.10;;;;;;5085998;28;20410;-67
2023/07/30 10:14:28;;;;;;;3.60;2.13;;;37.10;49.30;;;;;;5094096;28;20391;-69
2023/07/30 10:16:59;;;;;;;3.23;2.20;;;39.40;44.20;;;;;;5092185;28;20503;-70
2023/07/30 10:19:26;;;;;;;3.13;2.47;;;40.90;40.80;;;;;;5093963;28;21103;-69
2023/07/30 10:22:12;;;;;;;3.10;1.87;;;42.00;39.40;;;;;;5093917;28;20400;-69
2023/07/30 10:24:38;;;;;;;5.63;2.10;;;42.00;35.90;;;;;;5093928;28;20911;-69
2023/07/30 10:27:09;;;;;;;2.00;1.77;;;40.80;34.70;;;;;;5086457;28;20415;-69
2023/07/30 10:29:35;;;;;;;2.47;1.97;;;39.50;35.70;;;;;;5092379;28;20911;-68
2023/07/30 10:32:02;;;;;;;5.10;1.97;;;38.70;36.50;;;;;;5093754;28;20370;-68
2023/07/30 10:34:45;;;;;;;3.03;1.80;;;37.00;36.90;;;;;;5090290;28;20499;-68
2023/07/30 10:37:10;;;;;;;4.10;2.30;;;34.70;38.30;;;;;;5086554;28;20491;-67
2023/07/30 10:39:36;;;;;;;6.47;3.80;;;32.70;40.80;;;;;;5093303;28;21019;-67
2023/07/30 10:42:02;;;;;;;2.50;1.50;;;31.20;43.50;;;;;;5092442;28;20177;-67
2023/07/30 10:44:32;;;;;;;2.10;1.60;;;30.80;45.40;;;;;;5092295;28;20169;-67
2023/07/30 10:46:59;;;;;;;5.50;1.60;;;32.30;48.20;;;;;;5086551;28;20212;-68
2023/07/30 10:49:25;;;;;;;2.30;1.43;;;34.30;43.90;;;;;;5087542;28;20435;-68
2023/07/30 10:51:55;;;;;;;2.27;1.37;;;34.90;41.80;;;;;;5092515;28;20407;-69
2023/07/30 10:54:21;;;;;;;2.67;1.50;;;35.70;42.00;;;;;;5092689;28;20457;-67
2023/07/30 10:56:46;;;;;;;3.00;1.30;;;35.60;40.00;;;;;;5092788;28;20411;-67
2023/07/30 10:59:13;;;;;;;2.00;1.43;;;34.80;38.90;;;;;;5090238;28;20197;-67
2023/07/30 11:01:41;;;;;;;8.80;2.53;;;34.50;41.00;;;;;;5092909;28;20169;-67
2023/07/30 11:04:16;;;;;;;10.90;6.63;;;35.00;40.40;;;;;;5093052;28;20897;-66
2023/07/30 11:06:49;;;;;;;3.77;1.50;;;34.50;40.60;;;;;;5092627;28;20366;-66
2023/07/30 11:09:23;;;;;;;1.70;1.40;;;33.40;40.50;;;;;;5092912;28;20439;-66
2023/07/30 11:11:51;;;;;;;3.13;1.30;;;33.60;42.30;;;;;;5086787;28;20436;-67
2023/07/30 11:14:17;;;;;;;1.90;1.70;;;34.60;41.70;;;;;;5086987;28;20518;-67
2023/07/30 11:16:49;;;;;;;1.20;1.03;;;34.50;40.00;;;;;;5092478;28;20431;-67
2023/07/30 11:19:14;;;;;;;2.47;1.37;;;34.40;40.30;;;;;;5082688;28;20466;-67
2023/07/30 11:21:53;;;;;;;3.30;1.60;;;34.00;39.60;;;;;;5092536;28;20400;-67
2023/07/30 11:24:19;;;;;;;2.27;2.00;;;33.40;40.60;;;;;;5092743;28;20168;-67
2023/07/30 11:26:45;;;;;;;2.10;1.40;;;33.70;41.90;;;;;;5092222;28;20478;-67
2023/07/30 11:29:17;;;;;;;2.10;1.33;;;34.00;41.40;;;;;;5092854;28;20817;-67
2023/07/30 11:31:47;;;;;;;1.67;1.40;;;33.40;41.30;;;;;;5091481;28;20691;-67
2023/07/30 11:34:14;;;;;;;1.97;1.20;;;33.80;40.50;;;;;;5091102;28;20438;-67
2023/07/30 11:36:41;;;;;;;1.70;1.40;;;34.50;41.40;;;;;;5091051;28;20498;-67
2023/07/30 11:39:07;;;;;;;3.60;1.43;;;34.30;39.50;;;;;;5092259;28;20459;-67
2023/07/30 11:41:33;;;;;;;2.33;1.43;;;33.50;39.50;;;;;;5092523;28;20391;-68
2023/07/30 11:43:59;;;;;;;9.60;3.40;;;32.60;41.30;;;;;;5091391;28;20894;-68
2023/07/30 11:46:24;;;;;;;3.37;1.83;;;31.10;41.10;;;;;;5090942;28;20414;-67
2023/07/30 11:48:53;;;;;;;2.80;1.50;;;30.20;43.00;;;;;;5092062;28;20174;-67
2023/07/30 11:51:19;;;;;;;5.03;1.30;;;29.70;44.60;;;;;;5092336;28;20166;-67
2023/07/30 11:53:55;;;;;;;4.97;1.50;;;29.70;45.20;;;;;;5092349;28;20453;-68
2023/07/30 11:56:22;;;;;;;1.93;1.43;;;29.50;46.60;;;;;;5092132;28;20172;-66
2023/07/30 11:58:48;;;;;;;6.30;1.50;;;28.90;46.60;;;;;;5092013;28;20459;-67
2023/07/30 12:01:15;;;;;;;2.77;1.30;;;28.10;47.30;;;;;;5088936;28;20451;-66
2023/07/30 12:03:41;;;;;;;2.50;1.90;;;27.50;49.00;;;;;;5092185;28;20407;-67
2023/07/30 12:06:08;;;;;;;3.10;1.50;;;27.00;50.50;;;;;;5091994;28;20800;-67
2023/07/30 12:08:35;;;;;;;3.00;1.70;;;26.50;51.90;;;;;;5090551;28;20239;-67
2023/07/30 12:11:06;;;;;;;3.53;1.50;;;26.20;53.40;;;;;;5094154;28;20433;-67
2023/07/30 12:13:33;;;;;;;4.00;1.50;;;26.10;54.80;;;;;;5090255;28;20791;-67
2023/07/30 12:15:59;;;;;;;3.40;1.50;;;26.90;57.70;;;;;;5093149;28;20419;-66
2023/07/30 12:18:25;;;;;;;4.53;3.13;;;27.50;56.10;;;;;;5094712;28;20559;-67
2023/07/30 12:20:52;;;;;;;3.13;1.60;;;27.30;55.90;;;;;;5094194;28;20446;-66
2023/07/30 12:23:18;;;;;;;2.80;1.10;;;27.20;56.40;;;;;;5094665;28;20902;-66
2023/07/30 12:25:45;;;;;;;6.10;1.57;;;27.80;57.70;;;;;;5094624;28;20407;-65
2023/07/30 12:28:10;;;;;;;2.13;1.70;;;30.40;57.40;;;;;;5091990;28;20410;-65
2023/07/30 12:30:36;;;;;;;3.03;1.87;;;32.70;52.50;;;;;;5092718;28;20423;-66
2023/07/30 12:33:05;;;;;;;2.90;1.47;;;33.40;49.80;;;;;;5095440;28;20165;-67
2023/07/30 12:35:32;;;;;;;2.70;1.40;;;35.20;49.50;;;;;;5093893;28;20443;-67
2023/07/30 12:37:58;;;;;;;2.90;1.90;;;37.00;46.80;;;;;;5095235;28;20500;-67
2023/07/30 12:40:24;;;;;;;4.50;1.87;;;38.60;44.70;;;;;;5094299;28;20427;-67